This is the latest recevied weather packets stored in our database for station/object HA9OZD-19. If no packets are shown the sender has not sent any weather packets the latest 10 day(s).
| Time | Temp. | Humidity | Pressure | Rain* | Wind** | Luminosity | Snow |
|---|---|---|---|---|---|---|---|
| 1777774099 | 4.44° C | 61% | 1040.5 hPa | - | - | - | - |
| 1777770559 | 6.11° C | 55% | 1040.2 hPa | - | - | - | - |
| 1777763479 | 10.56° C | 46% | 1040 hPa | - | - | - | - |
| 1777759939 | 10° C | 48% | 1040.2 hPa | - | - | - | - |
| 1777756399 | 12.22° C | 43% | 1039.8 hPa | - | - | - | - |
| 1777752858 | 13.33° C | 40% | 1039.8 hPa | - | - | - | - |
| 1777749318 | 13.89° C | 38% | 1039.5 hPa | - | - | - | - |
| 1777745778 | 16.11° C | 34% | 1038.9 hPa | - | - | - | - |
| 1777742238 | 18.89° C | 30% | 1038.3 hPa | - | - | - | - |
| 1777738698 | 22.22° C | 26% | 1038.3 hPa | - | - | - | - |
| 1777735158 | 24.44° C | 24% | 1038.7 hPa | - | - | - | - |
| 1777731618 | 26.11° C | 22% | 1038.9 hPa | - | - | - | - |
| 1777728078 | 27.22° C | 21% | 1039.4 hPa | - | - | - | - |
| 1777724538 | 26.67° C | 22% | 1040.1 hPa | - | - | - | - |
| 1777720997 | 26.11° C | 22% | 1040.7 hPa | - | - | - | - |
| 1777717457 | 26.11° C | 22% | 1041.5 hPa | - | - | - | - |
| 1777716020 | 25° C | 23% | 1041.7 hPa | - | - | - | - |
| 1777712480 | 24.44° C | 25% | 1042.2 hPa | - | - | - | - |
| 1777708940 | 22.22° C | 31% | 1042.7 hPa | - | - | - | - |
| 1777705400 | 20° C | 42% | 1042.9 hPa | - | - | - | - |
| 1777701859 | 15° C | 57% | 1043.1 hPa | - | - | - | - |
| 1777698319 | 9.44° C | 66% | 1042.9 hPa | - | - | - | - |
| 1777691239 | 5.56° C | 59% | 1042.2 hPa | - | - | - | - |
| 1777687699 | 6.67° C | 57% | 1042.4 hPa | - | - | - | - |
| 1777684159 | 7.22° C | 56% | 1042.5 hPa | - | - | - | - |
* Rain since midnight (hover to see other rain measurements)
** Current wind speed in m/s (hover to see current wind gust speed)